Time;durP1;ratioP1;P1;durP2;ratioP2;P2;SDS_P1;SDS_P2;PMS_P1;PMS_P2;Temp;Humidity;BMP_temperature;BMP_pressure;BME280_temperature;BME280_humidity;BME280_pressure;Samples;Min_cycle;Max_cycle;Signal;HPM_P1;HPM_P2
2023/04/25 00:02:06;;;;;;;25.00;4.73;;;7.20;99.90;;;;;;4970942;28;37929;-74
2023/04/25 00:04:33;;;;;;;17.50;3.93;;;7.30;99.90;;;;;;4949249;28;37580;-75
2023/04/25 00:07:01;;;;;;;21.47;4.33;;;7.30;99.90;;;;;;4958530;28;37210;-75
2023/04/25 00:09:27;;;;;;;21.30;4.43;;;7.20;99.90;;;;;;4945112;28;47369;-76
2023/04/25 00:11:54;;;;;;;19.57;5.77;;;7.20;99.90;;;;;;4969051;28;38776;-75
2023/04/25 00:14:20;;;;;;;25.43;4.80;;;7.10;99.90;;;;;;4947668;28;38267;-74
2023/04/25 00:16:46;;;;;;;21.60;4.90;;;6.90;99.90;;;;;;4951803;28;38139;-75
2023/04/25 00:19:13;;;;;;;24.03;5.13;;;6.90;99.90;;;;;;4971967;28;38394;-75
2023/04/25 00:21:42;;;;;;;18.27;4.90;;;6.80;99.90;;;;;;4948681;28;37747;-75
2023/04/25 00:24:08;;;;;;;23.00;5.27;;;6.70;99.90;;;;;;4977114;28;39447;-75
2023/04/25 00:26:35;;;;;;;25.77;4.97;;;6.60;99.90;;;;;;4954412;28;36904;-74
2023/04/25 00:29:02;;;;;;;21.43;4.70;;;6.50;99.90;;;;;;4966320;28;36784;-75
2023/04/25 00:31:28;;;;;;;20.30;4.73;;;6.50;99.90;;;;;;4962749;28;39619;-75
2023/04/25 00:33:55;;;;;;;20.50;4.80;;;6.40;99.90;;;;;;4947172;28;37747;-76
2023/04/25 00:36:21;;;;;;;15.60;4.47;;;6.40;99.90;;;;;;4942962;28;38458;-74
2023/04/25 00:38:47;;;;;;;28.70;4.97;;;6.40;99.90;;;;;;4967409;28;38019;-74
2023/04/25 00:41:14;;;;;;;24.73;5.10;;;6.30;99.90;;;;;;4950548;28;38828;-75
2023/04/25 00:43:41;;;;;;;20.93;4.77;;;6.30;99.90;;;;;;4957861;28;37153;-75
2023/04/25 00:46:07;;;;;;;16.77;3.63;;;6.30;99.90;;;;;;4950743;28;40176;-75
2023/04/25 00:48:33;;;;;;;17.67;4.30;;;6.20;99.90;;;;;;4949623;28;36052;-76
2023/04/25 00:50:59;;;;;;;21.03;4.97;;;6.20;99.90;;;;;;4964380;28;38604;-74
2023/04/25 00:53:27;;;;;;;22.07;3.93;;;6.20;99.90;;;;;;4969580;28;38853;-75
2023/04/25 00:55:54;;;;;;;22.73;4.10;;;6.20;99.90;;;;;;4963631;28;37949;-75
2023/04/25 00:58:22;;;;;;;18.37;4.07;;;6.30;99.90;;;;;;4960240;28;37406;-75
2023/04/25 01:03:24;;;;;;;14.20;3.43;;;6.50;99.90;;;;;;5099717;23;20996;-75
2023/04/25 01:05:51;;;;;;;24.70;4.27;;;6.60;99.90;;;;;;4964183;28;38040;-74
2023/04/25 01:08:17;;;;;;;19.63;3.97;;;6.70;99.90;;;;;;4951299;28;37899;-79
2023/04/25 01:10:43;;;;;;;16.47;3.80;;;6.80;99.90;;;;;;4953620;28;38409;-79
2023/04/25 01:13:10;;;;;;;15.00;3.10;;;6.90;99.90;;;;;;4966877;28;38070;-80
2023/04/25 01:15:36;;;;;;;17.83;3.90;;;7.00;99.90;;;;;;4969567;28;38386;-79
2023/04/25 01:18:03;;;;;;;16.47;3.00;;;7.00;99.90;;;;;;4968055;28;36793;-79
2023/04/25 01:20:32;;;;;;;19.43;3.77;;;7.10;99.90;;;;;;4969206;28;38811;-79
2023/04/25 01:22:59;;;;;;;18.20;3.53;;;7.10;99.90;;;;;;4953653;28;38302;-80
2023/04/25 01:25:25;;;;;;;24.20;4.33;;;7.20;99.90;;;;;;4953776;28;38568;-79
2023/04/25 01:27:52;;;;;;;12.70;2.70;;;7.20;99.90;;;;;;4952852;28;36334;-79
2023/04/25 01:30:18;;;;;;;17.93;3.20;;;7.20;99.90;;;;;;4955897;28;40272;-80
2023/04/25 01:32:44;;;;;;;16.13;3.70;;;7.20;99.90;;;;;;4955331;28;38052;-80
2023/04/25 01:35:11;;;;;;;16.47;3.23;;;7.20;99.90;;;;;;4961556;28;37997;-80
2023/04/25 01:37:42;;;;;;;18.27;3.80;;;7.20;99.90;;;;;;4963570;28;36801;-79
2023/04/25 01:40:12;;;;;;;13.30;3.47;;;7.20;99.90;;;;;;4947145;28;37922;-79
2023/04/25 01:42:40;;;;;;;14.07;3.70;;;7.20;99.90;;;;;;4968296;28;38200;-80
2023/04/25 01:45:08;;;;;;;23.27;4.40;;;7.20;99.90;;;;;;4969816;28;38307;-80
2023/04/25 01:47:37;;;;;;;15.43;3.30;;;7.20;99.90;;;;;;4971472;28;36194;-80
2023/04/25 01:50:04;;;;;;;15.20;3.37;;;7.20;99.90;;;;;;4965602;28;39895;-80
2023/04/25 01:52:30;;;;;;;18.33;3.33;;;7.10;99.90;;;;;;4969832;28;49313;-80
2023/04/25 01:54:57;;;;;;;15.20;3.47;;;7.20;99.90;;;;;;4972404;28;38584;-81
2023/04/25 01:57:24;;;;;;;13.73;3.40;;;7.10;99.90;;;;;;4968253;28;36944;-78
2023/04/25 01:59:51;;;;;;;16.47;2.87;;;7.10;99.90;;;;;;4962060;28;38759;-79
2023/04/25 02:02:17;;;;;;;14.00;3.70;;;7.10;99.90;;;;;;4958151;28;38644;-78
2023/04/25 02:04:43;;;;;;;15.23;2.90;;;7.10;99.90;;;;;;4970552;28;36991;-78
2023/04/25 02:07:09;;;;;;;18.90;3.57;;;7.10;99.90;;;;;;4988133;28;36920;-79
2023/04/25 02:09:35;;;;;;;19.60;3.30;;;7.00;99.90;;;;;;4969312;28;37523;-80
2023/04/25 02:12:01;;;;;;;12.50;3.50;;;7.10;99.90;;;;;;5002594;28;38595;-79
2023/04/25 02:14:28;;;;;;;19.03;3.23;;;7.10;99.90;;;;;;4982134;28;48065;-80
2023/04/25 02:16:54;;;;;;;10.93;3.27;;;7.10;99.90;;;;;;4990324;28;37722;-79
2023/04/25 02:19:21;;;;;;;14.80;3.40;;;7.10;99.90;;;;;;4974933;28;37722;-79
2023/04/25 02:21:47;;;;;;;13.60;2.83;;;7.10;99.90;;;;;;4990249;28;38065;-79
2023/04/25 02:24:13;;;;;;;11.43;2.60;;;7.20;99.90;;;;;;4982470;28;38043;-79
2023/04/25 02:26:39;;;;;;;11.63;2.10;;;7.20;99.90;;;;;;4979171;28;37283;-79
2023/04/25 02:29:05;;;;;;;16.83;3.40;;;7.20;99.90;;;;;;4996658;28;40021;-79
2023/04/25 02:31:31;;;;;;;12.53;2.83;;;7.10;99.90;;;;;;4994190;28;37080;-80
2023/04/25 02:33:57;;;;;;;12.83;2.90;;;7.10;99.90;;;;;;4987415;28;38070;-80
2023/04/25 02:36:24;;;;;;;11.93;3.20;;;7.10;99.90;;;;;;4984295;28;37404;-80
2023/04/25 02:38:50;;;;;;;14.00;2.47;;;7.10;99.90;;;;;;4970078;28;37760;-79
2023/04/25 02:41:16;;;;;;;14.33;2.80;;;7.20;99.90;;;;;;4974523;28;37806;-79
2023/04/25 02:43:42;;;;;;;13.67;2.50;;;7.20;99.90;;;;;;4986801;28;39075;-79
2023/04/25 02:46:08;;;;;;;10.77;2.03;;;7.20;99.90;;;;;;4987005;28;36702;-78
2023/04/25 02:48:34;;;;;;;13.13;2.73;;;7.20;99.90;;;;;;4981375;28;39398;-79
2023/04/25 02:51:00;;;;;;;8.63;2.60;;;7.20;99.90;;;;;;4970255;28;38629;-79
2023/04/25 02:53:27;;;;;;;11.37;2.70;;;7.20;99.90;;;;;;4991874;28;39241;-80
2023/04/25 02:55:53;;;;;;;11.47;1.97;;;7.10;99.90;;;;;;4968245;28;36385;-79
2023/04/25 02:58:19;;;;;;;11.97;2.17;;;7.10;99.90;;;;;;4988344;28;38659;-79
2023/04/25 03:00:45;;;;;;;13.47;2.97;;;7.00;99.90;;;;;;4995907;28;38928;-79
2023/04/25 03:03:11;;;;;;;14.87;2.67;;;7.00;99.90;;;;;;4990294;28;37794;-79
2023/04/25 03:05:37;;;;;;;12.57;2.53;;;7.10;99.90;;;;;;4980797;28;37304;-79
2023/04/25 03:08:04;;;;;;;18.20;3.97;;;7.10;99.90;;;;;;4969068;28;37911;-80
2023/04/25 03:10:30;;;;;;;13.07;2.80;;;7.10;99.90;;;;;;4989049;28;39062;-80
2023/04/25 03:12:56;;;;;;;10.57;2.27;;;7.10;99.90;;;;;;4983066;28;37987;-80
2023/04/25 03:15:22;;;;;;;13.87;2.40;;;7.10;99.90;;;;;;4988314;28;36618;-80
2023/04/25 03:17:48;;;;;;;16.30;3.40;;;7.10;99.90;;;;;;4996651;28;39268;-80
2023/04/25 03:20:14;;;;;;;17.90;3.33;;;7.20;99.90;;;;;;4976280;28;37957;-80
2023/04/25 03:22:40;;;;;;;12.83;2.60;;;7.20;99.90;;;;;;4975037;28;37115;-80
2023/04/25 03:25:07;;;;;;;17.57;3.07;;;7.20;99.90;;;;;;4987607;28;39942;-79
2023/04/25 03:27:33;;;;;;;13.53;2.50;;;7.20;99.90;;;;;;4988310;28;39539;-80
2023/04/25 03:29:59;;;;;;;14.10;3.27;;;7.20;99.90;;;;;;4970075;28;37467;-79
2023/04/25 03:32:25;;;;;;;13.93;2.67;;;7.20;99.90;;;;;;4962760;28;37604;-79
2023/04/25 03:34:51;;;;;;;17.60;3.40;;;7.20;99.90;;;;;;4975343;28;36129;-79
2023/04/25 03:37:18;;;;;;;14.63;2.80;;;7.20;99.90;;;;;;4965826;28;37284;-76
2023/04/25 03:39:44;;;;;;;14.50;2.60;;;7.30;99.90;;;;;;4983480;28;38165;-80
2023/04/25 03:42:10;;;;;;;12.70;3.13;;;7.20;99.90;;;;;;4975676;28;37366;-79
2023/04/25 03:44:36;;;;;;;14.30;2.83;;;7.20;99.90;;;;;;4971083;28;35933;-80
2023/04/25 03:47:02;;;;;;;13.70;2.90;;;7.20;99.90;;;;;;4967265;28;37294;-78
2023/04/25 03:49:28;;;;;;;14.00;3.13;;;7.20;99.90;;;;;;4970208;28;47066;-79
2023/04/25 03:51:57;;;;;;;11.10;2.67;;;7.20;99.90;;;;;;4975877;28;37012;-80
2023/04/25 03:54:24;;;;;;;10.77;2.13;;;7.20;99.90;;;;;;4985225;28;38602;-79
2023/04/25 03:56:50;;;;;;;11.37;2.53;;;7.20;99.90;;;;;;4972566;28;39388;-79
2023/04/25 03:59:16;;;;;;;16.10;2.37;;;7.20;99.90;;;;;;4983090;28;39235;-79
2023/04/25 04:01:42;;;;;;;15.77;2.40;;;7.20;99.90;;;;;;4965990;28;37015;-79
2023/04/25 04:04:09;;;;;;;18.23;2.23;;;7.20;99.90;;;;;;4986041;28;38381;-79
2023/04/25 04:06:52;;;;;;;18.37;2.33;;;7.20;99.90;;;;;;5049944;27;20490;-80
2023/04/25 04:09:19;;;;;;;12.30;2.50;;;7.30;99.90;;;;;;5079333;28;36750;-80
2023/04/25 04:11:45;;;;;;;8.90;2.30;;;6.90;99.90;;;;;;5045465;28;36326;-80
2023/04/25 04:14:11;;;;;;;17.50;3.07;;;6.30;99.90;;;;;;5033955;28;38054;-80
2023/04/25 04:16:37;;;;;;;9.73;2.17;;;6.00;99.90;;;;;;5044896;28;37893;-81
2023/04/25 04:19:03;;;;;;;11.77;2.67;;;5.80;99.90;;;;;;5046551;28;37803;-78
2023/04/25 04:21:29;;;;;;;10.33;2.57;;;5.70;99.90;;;;;;5045130;28;36165;-81
2023/04/25 04:23:57;;;;;;;15.73;3.10;;;5.60;99.90;;;;;;5051335;28;39595;-77
2023/04/25 04:26:24;;;;;;;9.07;2.50;;;5.60;99.90;;;;;;5055006;28;38614;-79
2023/04/25 04:28:51;;;;;;;6.53;2.53;;;5.60;99.90;;;;;;5051107;28;36807;-79
2023/04/25 04:31:19;;;;;;;14.57;3.03;;;5.60;99.90;;;;;;5069805;28;38681;-78
2023/04/25 04:33:46;;;;;;;8.97;2.57;;;5.60;99.90;;;;;;5049949;28;37609;-78
2023/04/25 04:36:12;;;;;;;13.23;3.77;;;5.60;99.90;;;;;;5042652;28;37999;-78
2023/04/25 04:38:40;;;;;;;10.60;3.00;;;5.60;99.90;;;;;;5043085;28;36390;-79
2023/04/25 04:41:06;;;;;;;9.33;2.80;;;5.60;99.90;;;;;;5044343;28;37880;-78
2023/04/25 04:43:33;;;;;;;7.83;2.50;;;5.60;99.90;;;;;;5058183;28;37676;-79
2023/04/25 04:46:03;;;;;;;9.80;3.07;;;5.70;99.90;;;;;;5051597;28;37150;-79
2023/04/25 04:48:33;;;;;;;13.13;3.20;;;5.70;99.90;;;;;;5044431;28;48308;-79
2023/04/25 04:51:00;;;;;;;9.23;2.57;;;5.70;99.90;;;;;;5050972;28;37259;-79
2023/04/25 04:53:26;;;;;;;11.47;2.40;;;5.70;99.90;;;;;;5049342;28;38209;-79
2023/04/25 04:55:53;;;;;;;11.00;2.57;;;5.70;99.90;;;;;;5043533;28;37594;-79
2023/04/25 04:58:19;;;;;;;12.43;2.60;;;5.80;99.90;;;;;;5045949;28;36565;-79
2023/04/25 05:00:46;;;;;;;14.40;3.13;;;5.80;99.90;;;;;;5043968;28;38596;-79
2023/04/25 05:03:12;;;;;;;13.27;3.20;;;5.80;99.90;;;;;;5042714;28;38133;-78
2023/04/25 05:05:39;;;;;;;16.80;3.13;;;5.70;99.90;;;;;;5079342;28;38881;-78
2023/04/25 05:08:06;;;;;;;15.43;3.20;;;5.70;99.90;;;;;;5038344;28;37173;-79
2023/04/25 05:10:32;;;;;;;12.20;2.57;;;5.70;99.90;;;;;;5043203;28;36512;-78
2023/04/25 05:12:58;;;;;;;14.37;3.00;;;5.70;99.90;;;;;;5047207;28;38892;-79
2023/04/25 05:15:24;;;;;;;11.67;2.60;;;5.80;99.90;;;;;;5040058;28;38326;-79
2023/04/25 05:17:51;;;;;;;13.70;2.63;;;5.80;99.90;;;;;;5023788;28;36386;-79
2023/04/25 05:20:18;;;;;;;16.13;2.40;;;5.90;99.90;;;;;;5030903;28;37393;-78
2023/04/25 05:22:45;;;;;;;17.17;2.93;;;6.00;99.90;;;;;;5027776;28;37646;-79
2023/04/25 05:25:11;;;;;;;14.93;2.60;;;6.10;99.90;;;;;;5022017;28;39028;-74
2023/04/25 05:27:37;;;;;;;11.30;2.50;;;6.30;99.90;;;;;;5025394;28;37500;-74
2023/04/25 05:30:05;;;;;;;18.33;2.57;;;6.40;99.90;;;;;;5025633;28;37197;-78
2023/04/25 05:32:31;;;;;;;12.50;2.63;;;6.50;99.90;;;;;;5021256;28;36394;-78
2023/04/25 05:34:57;;;;;;;17.50;3.23;;;6.50;99.90;;;;;;5028139;28;37927;-78
2023/04/25 05:37:23;;;;;;;12.73;2.70;;;6.60;99.90;;;;;;5029763;28;36193;-81
2023/04/25 05:39:50;;;;;;;12.03;2.77;;;6.50;99.90;;;;;;5029352;28;37842;-82
2023/04/25 05:42:16;;;;;;;11.07;2.70;;;6.60;99.90;;;;;;5038368;28;37629;-82
2023/04/25 05:44:42;;;;;;;13.10;2.83;;;6.60;99.90;;;;;;5025925;28;38569;-82
2023/04/25 05:47:08;;;;;;;12.57;2.33;;;6.70;99.90;;;;;;5030964;28;36583;-80
2023/04/25 05:49:34;;;;;;;11.17;2.37;;;7.00;99.90;;;;;;5065943;28;36115;-80
2023/04/25 05:52:00;;;;;;;12.43;2.70;;;7.30;99.90;;;;;;5036004;28;38815;-81
2023/04/25 05:54:27;;;;;;;12.20;2.17;;;7.30;99.90;;;;;;5037533;28;48823;-80
2023/04/25 05:56:53;;;;;;;10.63;2.20;;;7.30;99.90;;;;;;5031453;28;36046;-81
2023/04/25 05:59:19;;;;;;;10.97;2.13;;;7.20;99.90;;;;;;5032816;28;36859;-81
2023/04/25 06:01:46;;;;;;;11.70;2.67;;;7.10;99.90;;;;;;5017501;28;37912;-80
2023/04/25 06:04:12;;;;;;;8.30;1.50;;;7.00;99.90;;;;;;5020030;28;38213;-81
2023/04/25 06:06:38;;;;;;;10.00;2.63;;;7.00;99.90;;;;;;5024457;28;37073;-81
2023/04/25 06:09:04;;;;;;;8.63;1.80;;;7.00;99.90;;;;;;5035168;28;37311;-81
2023/04/25 06:11:31;;;;;;;10.03;1.80;;;7.00;99.90;;;;;;5029010;28;39268;-81
2023/04/25 06:13:57;;;;;;;11.03;1.83;;;7.00;99.90;;;;;;5001136;28;37541;-81
2023/04/25 06:16:26;;;;;;;8.53;1.73;;;7.00;99.90;;;;;;5016788;28;36681;-81
2023/04/25 06:18:52;;;;;;;7.50;1.30;;;7.00;99.90;;;;;;5022363;28;37356;-80
2023/04/25 06:21:18;;;;;;;9.77;1.87;;;7.00;99.90;;;;;;5029404;28;39124;-80
2023/04/25 06:23:44;;;;;;;6.57;1.73;;;7.10;99.90;;;;;;5020704;28;36006;-80
2023/04/25 06:26:10;;;;;;;8.47;2.00;;;7.00;99.90;;;;;;5022382;28;38260;-80
2023/04/25 06:28:36;;;;;;;7.73;1.70;;;6.90;99.90;;;;;;5017532;28;37464;-79
2023/04/25 06:31:03;;;;;;;8.87;1.57;;;7.00;99.90;;;;;;5037774;28;39288;-79
2023/04/25 06:33:29;;;;;;;12.77;2.97;;;6.90;99.90;;;;;;5020592;28;38486;-80
2023/04/25 06:35:55;;;;;;;6.53;1.97;;;7.00;99.90;;;;;;5019093;28;36777;-79
2023/04/25 06:38:21;;;;;;;9.73;2.00;;;7.20;99.90;;;;;;5016777;28;36856;-80
2023/04/25 06:40:47;;;;;;;9.73;1.53;;;7.60;99.90;;;;;;5011963;28;38503;-79
2023/04/25 06:43:13;;;;;;;9.50;2.03;;;7.80;99.90;;;;;;5014500;28;38328;-79
2023/04/25 06:45:40;;;;;;;7.20;1.40;;;7.40;99.90;;;;;;5015431;28;36821;-81
2023/04/25 06:48:06;;;;;;;6.37;1.53;;;7.10;99.90;;;;;;5028855;28;37334;-82
2023/04/25 06:50:32;;;;;;;6.40;1.50;;;6.70;99.90;;;;;;5030883;28;37763;-81
2023/04/25 06:52:58;;;;;;;9.20;1.67;;;6.70;99.90;;;;;;5015819;28;38696;-79
2023/04/25 06:55:24;;;;;;;8.50;1.60;;;6.80;99.90;;;;;;5038017;28;37925;-80
2023/04/25 06:57:50;;;;;;;7.03;1.50;;;6.90;99.90;;;;;;5029392;28;37027;-79
2023/04/25 07:00:17;;;;;;;6.07;1.90;;;6.90;99.90;;;;;;5022448;28;37950;-80
2023/04/25 07:02:43;;;;;;;5.63;1.20;;;7.00;99.90;;;;;;5018624;28;38089;-81
2023/04/25 07:05:09;;;;;;;6.73;1.20;;;7.00;99.90;;;;;;5028345;28;37316;-80
2023/04/25 07:07:35;;;;;;;9.43;1.37;;;7.00;99.90;;;;;;5029449;28;36048;-80
2023/04/25 07:10:01;;;;;;;7.13;1.50;;;7.00;99.90;;;;;;5017678;28;37436;-80
2023/04/25 07:12:28;;;;;;;7.87;1.20;;;7.10;99.90;;;;;;5020248;28;38382;-79
2023/04/25 07:14:54;;;;;;;9.87;2.17;;;7.00;99.90;;;;;;5031954;28;38660;-80
2023/04/25 07:17:20;;;;;;;8.03;1.80;;;7.10;99.90;;;;;;5031091;28;36116;-80
2023/04/25 07:19:46;;;;;;;5.73;1.73;;;7.00;99.90;;;;;;5027743;28;38872;-79
2023/04/25 07:22:12;;;;;;;6.97;1.93;;;7.00;99.90;;;;;;5026770;28;38665;-79
2023/04/25 07:24:38;;;;;;;12.77;1.80;;;7.20;99.90;;;;;;5024000;28;38265;-79
2023/04/25 07:27:05;;;;;;;10.40;2.20;;;7.40;99.90;;;;;;5018160;28;37305;-79
2023/04/25 07:29:31;;;;;;;8.23;1.77;;;7.70;99.90;;;;;;5025073;28;37736;-79
2023/04/25 07:31:57;;;;;;;10.50;2.30;;;8.00;99.90;;;;;;5026515;28;39438;-80
2023/04/25 07:34:24;;;;;;;6.67;1.70;;;8.20;99.90;;;;;;5025551;28;36292;-80
2023/04/25 07:36:50;;;;;;;9.37;1.50;;;8.50;99.90;;;;;;5024748;28;36280;-80
2023/04/25 07:39:16;;;;;;;7.77;2.00;;;8.80;99.90;;;;;;5018836;28;38205;-80
2023/04/25 07:41:42;;;;;;;9.70;1.77;;;9.00;99.90;;;;;;5024704;28;38127;-80
2023/04/25 07:44:08;;;;;;;5.07;1.57;;;9.20;99.90;;;;;;5016575;28;37568;-78
2023/04/25 07:46:34;;;;;;;7.97;1.60;;;9.60;99.90;;;;;;5016028;28;38165;-78
2023/04/25 07:49:01;;;;;;;7.30;1.90;;;10.00;99.90;;;;;;5027059;28;37995;-77
2023/04/25 07:51:27;;;;;;;10.40;1.87;;;10.30;99.90;;;;;;5025623;28;47830;-78
2023/04/25 07:53:53;;;;;;;9.93;1.43;;;10.30;99.90;;;;;;5025971;28;36776;-77
2023/04/25 07:56:19;;;;;;;10.33;1.90;;;9.90;99.90;;;;;;5027802;28;36954;-77
2023/04/25 07:58:45;;;;;;;8.40;1.47;;;9.60;99.90;;;;;;5027733;28;38103;-78
2023/04/25 08:01:11;;;;;;;10.57;1.47;;;9.20;99.90;;;;;;5053734;28;38122;-79
2023/04/25 08:03:38;;;;;;;9.30;1.70;;;8.80;99.90;;;;;;5029319;28;37890;-80
2023/04/25 08:06:04;;;;;;;5.00;1.10;;;8.80;99.90;;;;;;5022405;28;37162;-80
2023/04/25 08:08:30;;;;;;;8.47;1.10;;;9.30;99.90;;;;;;5025651;28;38484;-80
2023/04/25 08:10:56;;;;;;;6.53;1.20;;;9.80;99.90;;;;;;5024320;28;38155;-80
2023/04/25 08:13:22;;;;;;;3.47;1.20;;;9.80;99.90;;;;;;5022355;28;38362;-80
2023/04/25 08:15:48;;;;;;;9.37;1.70;;;9.60;99.90;;;;;;5023914;28;37585;-77
2023/04/25 08:18:14;;;;;;;7.80;1.47;;;9.60;99.90;;;;;;5025918;28;38768;-78
2023/04/25 08:20:40;;;;;;;6.73;1.30;;;9.40;99.90;;;;;;5020429;28;38331;-77
2023/04/25 08:23:07;;;;;;;5.77;1.40;;;9.20;99.90;;;;;;5021665;28;36780;-77
2023/04/25 08:25:33;;;;;;;4.23;0.97;;;9.50;99.90;;;;;;5019940;28;37199;-78
2023/04/25 08:27:59;;;;;;;5.90;1.17;;;10.00;99.90;;;;;;5053393;28;37780;-77
2023/04/25 08:30:26;;;;;;;5.73;1.20;;;9.90;99.90;;;;;;5024035;28;38353;-78
2023/04/25 08:32:52;;;;;;;4.00;1.10;;;9.70;99.90;;;;;;5023930;28;36572;-78
2023/04/25 08:35:21;;;;;;;8.87;1.73;;;9.50;99.90;;;;;;5025858;28;36185;-79
2023/04/25 08:37:49;;;;;;;12.55;1.48;;;9.70;99.90;;;;;;5021233;28;39679;-78
2023/04/25 08:40:15;;;;;;;10.75;1.30;;;10.10;99.90;;;;;;5024535;28;37270;-78
2023/04/25 08:42:42;;;;;;;5.00;1.17;;;10.30;99.90;;;;;;5020748;28;37293;-78
2023/04/25 08:45:09;;;;;;;6.65;1.10;;;10.30;99.90;;;;;;5027022;28;36893;-78
2023/04/25 08:47:37;;;;;;;4.68;0.80;;;10.00;99.90;;;;;;5020985;28;38996;-78
2023/04/25 08:50:06;;;;;;;5.87;1.20;;;9.70;99.90;;;;;;5023497;28;38009;-78
2023/04/25 08:52:44;;;;;;;4.20;0.80;;;9.70;99.90;;;;;;5013160;28;49254;-78
2023/04/25 08:55:12;;;;;;;3.85;1.02;;;9.80;99.90;;;;;;5029196;28;37371;-78
2023/04/25 08:57:42;;;;;;;5.57;0.95;;;9.60;99.90;;;;;;5038253;28;39495;-78
2023/04/25 09:00:11;;;;;;;7.43;1.02;;;9.30;99.90;;;;;;5030421;28;38505;-78
2023/04/25 09:02:39;;;;;;;7.33;1.17;;;9.20;99.90;;;;;;5023900;28;37508;-78
2023/04/25 09:05:06;;;;;;;7.50;1.35;;;9.40;99.90;;;;;;5025374;28;37037;-78
2023/04/25 09:07:33;;;;;;;5.73;1.87;;;9.60;99.90;;;;;;5022873;28;38122;-77
2023/04/25 09:10:01;;;;;;;4.22;1.02;;;9.90;99.90;;;;;;5027901;28;37466;-78
2023/04/25 09:12:29;;;;;;;7.05;1.20;;;10.30;99.90;;;;;;5022484;28;37930;-78
2023/04/25 09:15:07;;;;;;;7.28;1.30;;;10.80;99.90;;;;;;5028968;28;36089;-77
2023/04/25 09:17:33;;;;;;;7.68;1.27;;;11.20;99.90;;;;;;5030806;28;48747;-77
2023/04/25 09:20:25;;;;;;;7.20;1.00;;;11.50;99.90;;;;;;5029953;28;37285;-77
2023/04/25 09:23:03;;;;;;;8.02;1.30;;;11.20;99.90;;;;;;5024677;28;47160;-78
2023/04/25 09:25:35;;;;;;;8.68;1.35;;;11.20;99.90;;;;;;5028108;28;46987;-78
2023/04/25 09:28:04;;;;;;;6.63;1.17;;;11.00;99.90;;;;;;5062674;28;38280;-75
2023/04/25 09:30:31;;;;;;;4.82;1.17;;;10.40;99.90;;;;;;5024690;28;37239;-77
2023/04/25 09:33:04;;;;;;;6.93;1.48;;;10.30;99.90;;;;;;5025377;28;37775;-78
2023/04/25 09:35:45;;;;;;;5.45;1.67;;;10.40;99.90;;;;;;5018892;28;47512;-77
2023/04/25 09:38:13;;;;;;;5.95;1.08;;;10.90;99.90;;;;;;5027938;28;38648;-78
2023/04/25 09:40:43;;;;;;;5.78;0.82;;;11.00;99.90;;;;;;5022616;28;38046;-78
2023/04/25 09:43:18;;;;;;;6.88;1.45;;;10.50;99.90;;;;;;5018254;28;37638;-80
2023/04/25 09:45:45;;;;;;;5.97;1.17;;;10.30;99.90;;;;;;5021816;28;36241;-78
2023/04/25 09:48:16;;;;;;;5.55;0.98;;;10.20;99.90;;;;;;5026437;28;37763;-78
2023/04/25 09:50:42;;;;;;;5.15;0.93;;;10.20;99.90;;;;;;5022378;28;37236;-78
2023/04/25 09:53:08;;;;;;;6.95;0.95;;;10.40;99.90;;;;;;5060967;28;36717;-78
2023/04/25 09:55:35;;;;;;;5.47;1.33;;;10.60;99.90;;;;;;5031356;28;36838;-78
2023/04/25 09:58:08;;;;;;;7.53;1.23;;;11.20;99.90;;;;;;5035906;28;39285;-76
2023/04/25 10:00:35;;;;;;;4.60;1.23;;;11.80;99.90;;;;;;5027040;28;39144;-79
2023/04/25 10:03:05;;;;;;;9.27;1.33;;;11.90;99.90;;;;;;5021402;28;36942;-77
2023/04/25 10:05:35;;;;;;;7.57;1.27;;;11.90;99.90;;;;;;5020266;28;47724;-77
2023/04/25 10:08:04;;;;;;;4.93;1.23;;;11.60;99.90;;;;;;5025114;28;39778;-77
2023/04/25 10:10:35;;;;;;;7.10;1.67;;;11.30;99.90;;;;;;5018171;28;47247;-78
2023/04/25 10:13:06;;;;;;;7.13;1.30;;;10.90;99.90;;;;;;5020192;28;37889;-78
2023/04/25 10:15:38;;;;;;;6.43;1.10;;;10.70;99.90;;;;;;5029970;28;36354;-77
2023/04/25 10:18:06;;;;;;;6.68;1.00;;;10.70;99.90;;;;;;5029517;28;38716;-77
2023/04/25 10:20:32;;;;;;;6.55;1.33;;;10.80;99.90;;;;;;5023966;28;37634;-76
2023/04/25 10:23:07;;;;;;;8.27;1.55;;;10.30;99.90;;;;;;5027213;28;37435;-76
2023/04/25 10:25:33;;;;;;;5.05;1.10;;;9.80;99.90;;;;;;5016846;28;48969;-76
2023/04/25 10:28:02;;;;;;;6.93;1.50;;;9.90;99.90;;;;;;5023422;28;38871;-77
2023/04/25 10:30:28;;;;;;;6.47;1.40;;;10.90;99.90;;;;;;5021985;28;49032;-77
2023/04/25 10:32:55;;;;;;;5.07;1.45;;;11.90;99.90;;;;;;5020567;28;37287;-78
2023/04/25 10:35:30;;;;;;;8.38;1.38;;;11.90;99.90;;;;;;5040160;28;37229;-77
2023/04/25 10:38:09;;;;;;;9.30;1.55;;;11.20;99.90;;;;;;5018743;28;37590;-76
2023/04/25 10:40:36;;;;;;;3.47;1.02;;;11.20;99.90;;;;;;5048800;28;47407;-76
2023/04/25 10:43:37;;;;;;;7.63;1.33;;;11.40;99.90;;;;;;5027977;28;36606;-77
2023/04/25 10:46:16;;;;;;;7.90;1.30;;;11.30;99.90;;;;;;5025816;28;38296;-77
2023/04/25 10:48:50;;;;;;;8.00;1.30;;;11.90;99.90;;;;;;5027650;28;38024;-78
2023/04/25 10:51:21;;;;;;;5.22;1.20;;;11.70;99.90;;;;;;5056216;28;37431;-78
2023/04/25 10:53:59;;;;;;;7.57;1.60;;;10.90;99.90;;;;;;5020744;28;36997;-78
2023/04/25 10:56:48;;;;;;;10.60;1.83;;;11.20;99.90;;;;;;5014381;28;37221;-77
2023/04/25 10:59:18;;;;;;;7.00;1.70;;;12.00;99.90;;;;;;5021556;28;37158;-77
2023/04/25 11:01:51;;;;;;;6.75;1.50;;;12.00;99.90;;;;;;5013843;28;37326;-77
2023/04/25 11:04:24;;;;;;;5.50;0.90;;;11.70;99.90;;;;;;5030254;28;36786;-78
2023/04/25 11:07:16;;;;;;;7.60;1.42;;;11.10;99.90;;;;;;5012026;28;37270;-78
2023/04/25 11:09:45;;;;;;;10.52;1.60;;;10.80;99.90;;;;;;5007465;28;48098;-78
2023/04/25 11:12:12;;;;;;;5.65;0.90;;;11.40;99.90;;;;;;5007918;28;37482;-77
2023/04/25 11:14:39;;;;;;;5.18;1.05;;;12.30;99.90;;;;;;5007905;28;36935;-78
2023/04/25 11:17:05;;;;;;;5.35;1.00;;;13.20;99.90;;;;;;5041905;28;36178;-78
2023/04/25 11:19:32;;;;;;;5.57;1.17;;;13.70;99.90;;;;;;5006403;28;38757;-78
2023/04/25 11:21:59;;;;;;;7.20;1.63;;;13.40;99.90;;;;;;5004059;28;38510;-77
2023/04/25 11:24:29;;;;;;;10.00;1.55;;;12.30;99.90;;;;;;5010070;28;37395;-78
2023/04/25 11:26:57;;;;;;;5.57;1.25;;;11.40;99.90;;;;;;5024614;28;37367;-78
2023/04/25 11:29:26;;;;;;;6.95;1.33;;;11.00;99.90;;;;;;5029648;28;39802;-77
2023/04/25 11:31:57;;;;;;;5.53;1.20;;;10.80;99.90;;;;;;5031487;28;38256;-78
2023/04/25 11:34:30;;;;;;;6.75;1.52;;;11.30;99.90;;;;;;5027991;28;37459;-78
2023/04/25 11:36:56;;;;;;;10.15;1.50;;;11.90;99.90;;;;;;5025106;28;36247;-77
2023/04/25 11:39:24;;;;;;;5.25;1.20;;;11.50;99.90;;;;;;5028507;28;38366;-78
2023/04/25 11:41:51;;;;;;;7.97;1.48;;;11.00;99.90;;;;;;5026249;28;38505;-78
2023/04/25 11:44:18;;;;;;;7.75;1.75;;;10.80;99.90;;;;;;5024644;28;37287;-78
2023/04/25 11:46:45;;;;;;;9.02;1.83;;;10.40;99.90;;;;;;5020290;28;37094;-78
2023/04/25 11:49:12;;;;;;;5.72;1.30;;;10.20;99.90;;;;;;5024977;28;38021;-77
2023/04/25 11:51:43;;;;;;;6.68;1.23;;;10.40;99.90;;;;;;5027507;28;37210;-78
2023/04/25 11:54:11;;;;;;;4.22;1.08;;;11.40;99.90;;;;;;5056315;28;36213;-78
2023/04/25 11:56:41;;;;;;;5.40;1.25;;;11.90;99.90;;;;;;5027491;28;36370;-77
2023/04/25 11:59:07;;;;;;;6.80;1.10;;;12.90;99.90;;;;;;5026955;28;38817;-77
2023/04/25 12:01:35;;;;;;;6.97;1.10;;;13.40;99.90;;;;;;5022587;28;38019;-78
2023/04/25 12:04:26;;;;;;;9.05;1.42;;;12.60;99.90;;;;;;5014262;28;37653;-77
2023/04/25 12:06:55;;;;;;;7.70;1.85;;;12.10;99.90;;;;;;5012455;28;47356;-77
2023/04/25 12:09:32;;;;;;;4.03;1.00;;;12.40;99.90;;;;;;5023003;28;38080;-77
2023/04/25 12:12:02;;;;;;;5.28;1.00;;;12.00;99.90;;;;;;5016063;28;39470;-77
2023/04/25 12:14:31;;;;;;;4.63;1.63;;;11.50;99.90;;;;;;5014958;28;46917;-78
2023/04/25 12:17:02;;;;;;;5.03;1.20;;;11.90;99.90;;;;;;5015820;28;35892;-77
2023/04/25 12:19:36;;;;;;;4.47;0.80;;;12.20;99.90;;;;;;5017001;28;48303;-77
2023/04/25 12:22:03;;;;;;;5.40;1.20;;;11.40;99.90;;;;;;5019363;28;37325;-77
2023/04/25 12:24:33;;;;;;;9.30;1.48;;;11.10;99.90;;;;;;5012138;28;37384;-77
2023/04/25 12:27:04;;;;;;;4.88;1.20;;;11.40;99.90;;;;;;5017276;28;37201;-77
2023/04/25 12:29:32;;;;;;;6.55;1.42;;;12.10;99.90;;;;;;5019386;28;48623;-77
2023/04/25 12:31:59;;;;;;;10.27;2.20;;;11.60;99.90;;;;;;5014157;28;39585;-76
2023/04/25 12:34:25;;;;;;;6.90;1.33;;;12.10;99.90;;;;;;5019055;28;36427;-78
2023/04/25 12:36:52;;;;;;;11.50;1.40;;;12.10;99.90;;;;;;5015188;28;37678;-76
2023/04/25 12:39:23;;;;;;;7.15;1.38;;;12.20;99.90;;;;;;5010773;28;38927;-78
2023/04/25 12:41:56;;;;;;;7.13;1.55;;;12.90;99.90;;;;;;5033762;28;37658;-78
2023/04/25 12:44:22;;;;;;;9.50;2.50;;;13.20;99.90;;;;;;5024087;28;37662;-79
2023/04/25 12:46:48;;;;;;;7.43;1.17;;;13.30;99.90;;;;;;5032267;28;37019;-79
2023/04/25 12:49:14;;;;;;;9.07;1.30;;;13.10;99.90;;;;;;5019082;28;38843;-81
2023/04/25 12:51:41;;;;;;;8.65;1.38;;;13.30;99.90;;;;;;5056369;28;37673;-79
2023/04/25 12:54:08;;;;;;;6.47;1.08;;;12.70;99.90;;;;;;5060535;28;37628;-79